sensor_id;sensor_type;location;lat;lon;timestamp;pressure;altitude;pressure_sealevel;temperature;humidity
64064;BME280;50314;50.618;10.642;2022-09-23T00:02:24;97087.38;;;17.87;24.95
64064;BME280;50314;50.618;10.642;2022-09-23T00:04:49;97084.84;;;17.85;24.86
64064;BME280;50314;50.618;10.642;2022-09-23T00:07:15;97088.50;;;17.84;25.09
64064;BME280;50314;50.618;10.642;2022-09-23T00:09:41;97083.31;;;17.82;25.20
64064;BME280;50314;50.618;10.642;2022-09-23T00:12:06;97089.63;;;17.81;24.99
64064;BME280;50314;50.618;10.642;2022-09-23T00:14:35;97086.13;;;17.81;25.34
64064;BME280;50314;50.618;10.642;2022-09-23T00:17:01;97086.03;;;17.73;25.17
64064;BME280;50314;50.618;10.642;2022-09-23T00:19:26;97086.59;;;17.76;25.21
64064;BME280;50314;50.618;10.642;2022-09-23T00:21:51;97084.91;;;17.75;25.23
64064;BME280;50314;50.618;10.642;2022-09-23T00:24:17;97082.41;;;17.74;24.89
64064;BME280;50314;50.618;10.642;2022-09-23T00:26:43;97088.56;;;17.74;24.96
64064;BME280;50314;50.618;10.642;2022-09-23T00:29:09;97081.69;;;17.72;25.19
64064;BME280;50314;50.618;10.642;2022-09-23T00:31:34;97087.19;;;17.70;24.89
64064;BME280;50314;50.618;10.642;2022-09-23T00:34:01;97081.88;;;17.70;25.05
64064;BME280;50314;50.618;10.642;2022-09-23T00:36:27;97079.19;;;17.70;25.24
64064;BME280;50314;50.618;10.642;2022-09-23T00:38:53;97072.47;;;17.66;25.21
64064;BME280;50314;50.618;10.642;2022-09-23T00:41:19;97073.63;;;17.64;25.26
64064;BME280;50314;50.618;10.642;2022-09-23T00:43:54;97069.59;;;17.59;24.98
64064;BME280;50314;50.618;10.642;2022-09-23T00:48:52;97068.72;;;17.59;24.97
64064;BME280;50314;50.618;10.642;2022-09-23T00:51:22;97062.72;;;17.57;24.96
64064;BME280;50314;50.618;10.642;2022-09-23T00:53:50;97067.06;;;17.58;25.14
64064;BME280;50314;50.618;10.642;2022-09-23T00:56:17;97062.72;;;17.57;24.94
64064;BME280;50314;50.618;10.642;2022-09-23T00:58:45;97058.53;;;17.54;25.03
64064;BME280;50314;50.618;10.642;2022-09-23T01:01:12;97056.69;;;17.55;25.15
64064;BME280;50314;50.618;10.642;2022-09-23T01:03:39;97055.88;;;17.54;24.92
64064;BME280;50314;50.618;10.642;2022-09-23T01:06:05;97059.53;;;17.53;24.98
64064;BME280;50314;50.618;10.642;2022-09-23T01:08:31;97054.34;;;17.52;24.98
64064;BME280;50314;50.618;10.642;2022-09-23T01:11:13;97047.47;;;17.49;25.10
64064;BME280;50314;50.618;10.642;2022-09-23T01:19:33;97032.81;;;17.35;25.15
64064;BME280;50314;50.618;10.642;2022-09-23T01:24:47;97035.16;;;17.38;25.12
64064;BME280;50314;50.618;10.642;2022-09-23T01:30:06;97031.13;;;17.34;25.23
64064;BME280;50314;50.618;10.642;2022-09-23T01:35:25;97033.53;;;17.28;25.21
64064;BME280;50314;50.618;10.642;2022-09-23T01:37:59;97028.75;;;17.31;25.28
64064;BME280;50314;50.618;10.642;2022-09-23T01:43:18;97025.28;;;17.31;25.17
64064;BME280;50314;50.618;10.642;2022-09-23T01:45:47;97024.44;;;17.30;24.89
64064;BME280;50314;50.618;10.642;2022-09-23T01:48:31;97026.69;;;17.25;25.21
64064;BME280;50314;50.618;10.642;2022-09-23T01:51:27;97033.28;;;17.21;25.15
64064;BME280;50314;50.618;10.642;2022-09-23T01:54:05;97020.81;;;17.22;25.31
64064;BME280;50314;50.618;10.642;2022-09-23T01:56:36;97025.03;;;17.24;25.16
64064;BME280;50314;50.618;10.642;2022-09-23T01:59:15;97024.63;;;17.19;25.16
64064;BME280;50314;50.618;10.642;2022-09-23T02:04:43;97022.84;;;17.10;25.44
64064;BME280;50314;50.618;10.642;2022-09-23T02:07:17;97027.88;;;17.13;25.40
64064;BME280;50314;50.618;10.642;2022-09-23T02:09:45;97025.81;;;17.07;25.32
64064;BME280;50314;50.618;10.642;2022-09-23T02:12:16;97025.34;;;17.11;25.21
64064;BME280;50314;50.618;10.642;2022-09-23T02:15:12;97024.97;;;17.06;25.47
64064;BME280;50314;50.618;10.642;2022-09-23T02:20:09;97024.53;;;17.11;25.44
64064;BME280;50314;50.618;10.642;2022-09-23T02:25:11;97025.81;;;17.07;25.25
64064;BME280;50314;50.618;10.642;2022-09-23T02:28:02;97017.56;;;17.00;25.26
64064;BME280;50314;50.618;10.642;2022-09-23T02:30:40;97014.91;;;17.00;25.31
64064;BME280;50314;50.618;10.642;2022-09-23T02:33:36;97015.34;;;16.96;25.52
64064;BME280;50314;50.618;10.642;2022-09-23T02:36:10;97014.19;;;16.98;25.56
64064;BME280;50314;50.618;10.642;2022-09-23T02:38:45;97012.69;;;16.96;25.51
64064;BME280;50314;50.618;10.642;2022-09-23T02:41:25;97010.16;;;16.94;25.45
64064;BME280;50314;50.618;10.642;2022-09-23T02:44:02;97010.31;;;16.93;25.47
64064;BME280;50314;50.618;10.642;2022-09-23T02:46:30;97007.38;;;16.96;25.47
64064;BME280;50314;50.618;10.642;2022-09-23T02:49:07;97001.50;;;16.92;25.39
64064;BME280;50314;50.618;10.642;2022-09-23T02:51:36;96996.72;;;16.96;25.42
64064;BME280;50314;50.618;10.642;2022-09-23T02:54:04;97009.03;;;16.97;25.23
64064;BME280;50314;50.618;10.642;2022-09-23T02:56:32;97000.06;;;16.98;25.26
64064;BME280;50314;50.618;10.642;2022-09-23T02:58:58;97000.06;;;16.98;25.50
64064;BME280;50314;50.618;10.642;2022-09-23T03:01:48;96995.03;;;16.95;25.29
64064;BME280;50314;50.618;10.642;2022-09-23T03:07:32;96996.47;;;16.89;25.57
64064;BME280;50314;50.618;10.642;2022-09-23T03:10:22;96991.28;;;16.87;25.49
64064;BME280;50314;50.618;10.642;2022-09-23T03:15:37;96992.81;;;16.90;25.17
64064;BME280;50314;50.618;10.642;2022-09-23T03:18:16;96984.69;;;16.91;25.30
64064;BME280;50314;50.618;10.642;2022-09-23T03:20:51;96982.47;;;16.87;25.38
64064;BME280;50314;50.618;10.642;2022-09-23T03:23:23;96983.19;;;16.89;25.46
64064;BME280;50314;50.618;10.642;2022-09-23T03:25:51;96986.66;;;16.89;25.37
64064;BME280;50314;50.618;10.642;2022-09-23T03:28:19;96983.84;;;16.91;25.31
64064;BME280;50314;50.618;10.642;2022-09-23T03:30:46;96981.09;;;16.83;25.49
64064;BME280;50314;50.618;10.642;2022-09-23T03:33:13;96977.97;;;16.87;25.34
64064;BME280;50314;50.618;10.642;2022-09-23T03:35:59;96977.44;;;16.84;25.41
64064;BME280;50314;50.618;10.642;2022-09-23T03:38:48;96975.78;;;16.83;25.39
64064;BME280;50314;50.618;10.642;2022-09-23T03:41:24;96971.28;;;16.83;25.36
64064;BME280;50314;50.618;10.642;2022-09-23T03:43:54;96968.47;;;16.85;25.37
64064;BME280;50314;50.618;10.642;2022-09-23T03:46:24;96976.44;;;16.85;25.19
64064;BME280;50314;50.618;10.642;2022-09-23T03:48:50;96964.97;;;16.84;25.41
64064;BME280;50314;50.618;10.642;2022-09-23T03:51:21;96971.28;;;16.83;25.41
64064;BME280;50314;50.618;10.642;2022-09-23T03:53:48;96964.84;;;16.86;25.31
64064;BME280;50314;50.618;10.642;2022-09-23T03:56:13;96962.31;;;16.84;25.26
64064;BME280;50314;50.618;10.642;2022-09-23T03:58:39;96959.81;;;16.83;25.24
64064;BME280;50314;50.618;10.642;2022-09-23T04:01:04;96958.97;;;16.82;25.28
64064;BME280;50314;50.618;10.642;2022-09-23T04:03:30;96958.97;;;16.82;25.28
64064;BME280;50314;50.618;10.642;2022-09-23T04:05:55;96966.25;;;16.80;25.33
64064;BME280;50314;50.618;10.642;2022-09-23T04:08:21;96967.34;;;16.78;25.29
64064;BME280;50314;50.618;10.642;2022-09-23T04:10:46;96964.56;;;16.79;25.27
64064;BME280;50314;50.618;10.642;2022-09-23T04:13:11;96948.59;;;16.79;25.33
64064;BME280;50314;50.618;10.642;2022-09-23T04:15:37;96953.09;;;16.79;25.38
64064;BME280;50314;50.618;10.642;2022-09-23T04:18:04;96946.91;;;16.78;25.32
64064;BME280;50314;50.618;10.642;2022-09-23T04:20:29;96945.22;;;16.77;25.30
64064;BME280;50314;50.618;10.642;2022-09-23T04:22:55;96950.56;;;16.77;25.32
64064;BME280;50314;50.618;10.642;2022-09-23T04:25:20;96948.88;;;16.76;25.34
64064;BME280;50314;50.618;10.642;2022-09-23T04:27:46;96938.25;;;16.76;25.42
64064;BME280;50314;50.618;10.642;2022-09-23T04:30:11;96934.75;;;16.76;25.34
64064;BME280;50314;50.618;10.642;2022-09-23T04:32:37;96939.25;;;16.75;25.36
64064;BME280;50314;50.618;10.642;2022-09-23T04:35:03;96935.88;;;16.73;25.24
64064;BME280;50314;50.618;10.642;2022-09-23T04:37:29;96929.56;;;16.74;25.28
64064;BME280;50314;50.618;10.642;2022-09-23T04:39:54;96940.19;;;16.74;25.25
64064;BME280;50314;50.618;10.642;2022-09-23T04:42:20;96940.19;;;16.74;25.34
64064;BME280;50314;50.618;10.642;2022-09-23T04:44:46;96940.19;;;16.74;25.15
64064;BME280;50314;50.618;10.642;2022-09-23T04:47:11;96937.53;;;16.74;25.38
64064;BME280;50314;50.618;10.642;2022-09-23T04:49:36;96938.53;;;16.73;25.20
64064;BME280;50314;50.618;10.642;2022-09-23T04:52:02;96934.22;;;16.72;25.20
64064;BME280;50314;50.618;10.642;2022-09-23T04:54:29;96938.66;;;16.72;25.22
64064;BME280;50314;50.618;10.642;2022-09-23T04:56:55;96933.50;;;16.70;25.21
64064;BME280;50314;50.618;10.642;2022-09-23T04:59:21;96946.66;;;16.72;25.12
64064;BME280;50314;50.618;10.642;2022-09-23T05:01:46;96944.97;;;16.71;25.17
64064;BME280;50314;50.618;10.642;2022-09-23T05:04:12;96944.97;;;16.71;25.38
64064;BME280;50314;50.618;10.642;2022-09-23T05:06:40;96952.13;;;16.70;25.25
64064;BME280;50314;50.618;10.642;2022-09-23T05:09:09;96947.09;;;16.67;25.08
64064;BME280;50314;50.618;10.642;2022-09-23T05:11:38;96951.41;;;16.68;25.31
64064;BME280;50314;50.618;10.642;2022-09-23T05:14:03;96954.09;;;16.68;25.20
64064;BME280;50314;50.618;10.642;2022-09-23T05:16:28;96950.59;;;16.67;25.07
64064;BME280;50314;50.618;10.642;2022-09-23T05:18:54;96958.56;;;16.67;25.31
64064;BME280;50314;50.618;10.642;2022-09-23T05:21:24;96957.91;;;16.65;25.40
64064;BME280;50314;50.618;10.642;2022-09-23T05:23:53;96959.41;;;16.68;25.29
64064;BME280;50314;50.618;10.642;2022-09-23T05:26:20;96960.38;;;16.67;25.23
64064;BME280;50314;50.618;10.642;2022-09-23T05:28:46;96955.91;;;16.67;25.46
64064;BME280;50314;50.618;10.642;2022-09-23T05:31:13;96957.72;;;16.67;25.38
64064;BME280;50314;50.618;10.642;2022-09-23T05:33:42;96950.88;;;16.64;25.29
64064;BME280;50314;50.618;10.642;2022-09-23T05:36:09;96957.72;;;16.67;25.30
64064;BME280;50314;50.618;10.642;2022-09-23T05:38:35;96962.38;;;16.65;25.32
64064;BME280;50314;50.618;10.642;2022-09-23T05:41:06;96956.06;;;16.66;25.32
64064;BME280;50314;50.618;10.642;2022-09-23T05:43:32;96954.41;;;16.65;25.39
64064;BME280;50314;50.618;10.642;2022-09-23T05:46:27;96953.97;;;16.60;25.54
64064;BME280;50314;50.618;10.642;2022-09-23T05:48:54;96957.06;;;16.65;25.30
64064;BME280;50314;50.618;10.642;2022-09-23T05:51:22;96952.56;;;16.65;25.19
64064;BME280;50314;50.618;10.642;2022-09-23T05:53:50;96951.75;;;16.65;25.32
64064;BME280;50314;50.618;10.642;2022-09-23T05:56:19;96949.09;;;16.65;25.10
64064;BME280;50314;50.618;10.642;2022-09-23T05:58:47;96945.56;;;16.64;25.14
64064;BME280;50314;50.618;10.642;2022-09-23T06:01:15;96945.44;;;16.66;25.21
64064;BME280;50314;50.618;10.642;2022-09-23T06:03:48;96945.56;;;16.64;25.26
64064;BME280;50314;50.618;10.642;2022-09-23T06:06:14;96949.75;;;16.67;25.44
64064;BME280;50314;50.618;10.642;2022-09-23T06:08:42;96946.09;;;16.68;25.22
64064;BME280;50314;50.618;10.642;2022-09-23T06:11:08;96947.81;;;16.69;25.14
64064;BME280;50314;50.618;10.642;2022-09-23T06:13:34;96947.81;;;16.69;25.13
64064;BME280;50314;50.618;10.642;2022-09-23T06:16:05;96948.63;;;16.70;25.39
64064;BME280;50314;50.618;10.642;2022-09-23T06:18:32;96947.81;;;16.69;25.01
64064;BME280;50314;50.618;10.642;2022-09-23T06:21:01;96946.09;;;16.68;25.23
64064;BME280;50314;50.618;10.642;2022-09-23T06:23:27;96945.97;;;16.70;24.88
64064;BME280;50314;50.618;10.642;2022-09-23T06:25:52;96939.66;;;16.71;25.07
64064;BME280;50314;50.618;10.642;2022-09-23T06:28:18;96936.88;;;16.72;25.14
64064;BME280;50314;50.618;10.642;2022-09-23T06:30:44;96951.69;;;16.75;25.02
64064;BME280;50314;50.618;10.642;2022-09-23T06:33:09;96943.56;;;16.76;25.11
64064;BME280;50314;50.618;10.642;2022-09-23T06:35:34;96943.41;;;16.78;25.06
64064;BME280;50314;50.618;10.642;2022-09-23T06:38:04;96939.53;;;16.82;25.12
64064;BME280;50314;50.618;10.642;2022-09-23T06:40:29;96946.06;;;16.87;25.18
64064;BME280;50314;50.618;10.642;2022-09-23T06:42:59;96942.97;;;16.92;24.93
64064;BME280;50314;50.618;10.642;2022-09-23T06:45:25;96948.38;;;17.00;25.00
64064;BME280;50314;50.618;10.642;2022-09-23T06:47:57;96947.25;;;17.03;24.94
64064;BME280;50314;50.618;10.642;2022-09-23T06:50:24;96946.50;;;17.10;24.97
64064;BME280;50314;50.618;10.642;2022-09-23T06:52:53;96953.75;;;17.18;24.90
64064;BME280;50314;50.618;10.642;2022-09-23T06:55:29;96955.69;;;17.26;24.77
64064;BME280;50314;50.618;10.642;2022-09-23T06:57:58;96953.22;;;17.32;24.87
64064;BME280;50314;50.618;10.642;2022-09-23T07:00:24;96947.31;;;17.38;24.74
64064;BME280;50314;50.618;10.642;2022-09-23T07:02:50;96945.88;;;17.44;24.99
64064;BME280;50314;50.618;10.642;2022-09-23T07:05:15;96946.16;;;17.51;24.51
64064;BME280;50314;50.618;10.642;2022-09-23T07:07:42;96943.56;;;17.59;24.92
64064;BME280;50314;50.618;10.642;2022-09-23T07:10:09;96936.63;;;17.66;24.63
64064;BME280;50314;50.618;10.642;2022-09-23T07:12:35;96933.00;;;17.67;24.40
64064;BME280;50314;50.618;10.642;2022-09-23T07:15:00;96933.44;;;17.80;24.23
64064;BME280;50314;50.618;10.642;2022-09-23T07:17:26;96938.00;;;17.88;24.27
64064;BME280;50314;50.618;10.642;2022-09-23T07:19:52;96936.94;;;17.99;24.38
64064;BME280;50314;50.618;10.642;2022-09-23T07:22:19;96939.81;;;18.05;24.34
64064;BME280;50314;50.618;10.642;2022-09-23T07:24:45;96939.06;;;18.13;24.52
64064;BME280;50314;50.618;10.642;2022-09-23T07:27:12;96940.13;;;18.20;24.39
64064;BME280;50314;50.618;10.642;2022-09-23T07:29:41;96939.19;;;18.29;24.62
64064;BME280;50314;50.618;10.642;2022-09-23T07:32:06;96949.91;;;18.38;24.72
64064;BME280;50314;50.618;10.642;2022-09-23T07:34:32;96949.13;;;18.45;24.31
64064;BME280;50314;50.618;10.642;2022-09-23T07:36:57;96945.84;;;18.51;24.37
64064;BME280;50314;50.618;10.642;2022-09-23T07:39:23;96943.69;;;18.55;24.73
64064;BME280;50314;50.618;10.642;2022-09-23T07:41:48;96950.38;;;18.59;24.38
64064;BME280;50314;50.618;10.642;2022-09-23T07:44:14;96946.38;;;18.63;24.67
64064;BME280;50314;50.618;10.642;2022-09-23T07:46:40;96942.41;;;18.67;24.73
64064;BME280;50314;50.618;10.642;2022-09-23T07:49:06;96942.94;;;18.71;24.63
64064;BME280;50314;50.618;10.642;2022-09-23T07:51:36;96941.78;;;18.73;24.19
64064;BME280;50314;50.618;10.642;2022-09-23T07:54:05;96940.47;;;18.77;24.59
64064;BME280;50314;50.618;10.642;2022-09-23T07:56:32;96934.69;;;18.82;24.51
64064;BME280;50314;50.618;10.642;2022-09-23T07:58:57;96935.22;;;18.86;24.12
64064;BME280;50314;50.618;10.642;2022-09-23T08:01:33;96934.19;;;18.87;24.32
64064;BME280;50314;50.618;10.642;2022-09-23T08:04:09;96937.38;;;18.90;24.36
64064;BME280;50314;50.618;10.642;2022-09-23T08:06:42;96931.41;;;18.96;24.43
64064;BME280;50314;50.618;10.642;2022-09-23T08:09:08;96934.44;;;19.01;24.58
64064;BME280;50314;50.618;10.642;2022-09-23T08:11:33;96927.94;;;19.04;24.83
64064;BME280;50314;50.618;10.642;2022-09-23T08:14:00;96932.81;;;19.09;24.60
64064;BME280;50314;50.618;10.642;2022-09-23T08:16:25;96935.66;;;19.15;24.48
64064;BME280;50314;50.618;10.642;2022-09-23T08:18:51;96931.50;;;19.21;24.49
64064;BME280;50314;50.618;10.642;2022-09-23T08:21:20;96930.84;;;19.27;24.53
64064;BME280;50314;50.618;10.642;2022-09-23T08:23:46;96922.59;;;19.46;24.29
64064;BME280;50314;50.618;10.642;2022-09-23T08:26:11;96927.81;;;19.73;24.68
64064;BME280;50314;50.618;10.642;2022-09-23T08:28:37;96919.47;;;20.08;24.32
64064;BME280;50314;50.618;10.642;2022-09-23T08:31:02;96915.09;;;20.40;24.16
64064;BME280;50314;50.618;10.642;2022-09-23T08:33:28;96914.53;;;20.69;23.92
64064;BME280;50314;50.618;10.642;2022-09-23T08:36:00;96918.31;;;20.83;23.26
64064;BME280;50314;50.618;10.642;2022-09-23T08:38:28;96918.41;;;21.06;23.40
64064;BME280;50314;50.618;10.642;2022-09-23T08:41:11;96919.16;;;21.31;23.14
64064;BME280;50314;50.618;10.642;2022-09-23T08:43:45;96912.28;;;21.59;22.62
64064;BME280;50314;50.618;10.642;2022-09-23T08:46:16;96908.66;;;21.75;22.42
64064;BME280;50314;50.618;10.642;2022-09-23T08:48:47;96914.16;;;21.82;22.72
64064;BME280;50314;50.618;10.642;2022-09-23T08:51:16;96911.94;;;21.86;22.55
64064;BME280;50314;50.618;10.642;2022-09-23T08:53:44;96904.53;;;21.88;22.57
64064;BME280;50314;50.618;10.642;2022-09-23T08:56:16;96911.03;;;21.93;22.43
64064;BME280;50314;50.618;10.642;2022-09-23T08:59:10;96901.63;;;21.97;22.44
64064;BME280;50314;50.618;10.642;2022-09-23T09:01:51;96907.75;;;22.06;21.97
64064;BME280;50314;50.618;10.642;2022-09-23T09:04:22;96909.88;;;22.11;22.13
64064;BME280;50314;50.618;10.642;2022-09-23T09:06:57;96903.78;;;22.17;22.12
64064;BME280;50314;50.618;10.642;2022-09-23T09:09:33;96903.44;;;22.20;21.91
64064;BME280;50314;50.618;10.642;2022-09-23T09:14:55;96920.41;;;22.35;22.09
64064;BME280;50314;50.618;10.642;2022-09-23T09:22:51;96923.94;;;22.50;21.66
64064;BME280;50314;50.618;10.642;2022-09-23T09:27:57;96916.09;;;22.64;21.99
64064;BME280;50314;50.618;10.642;2022-09-23T09:30:23;96910.81;;;22.70;21.91
64064;BME280;50314;50.618;10.642;2022-09-23T09:33:00;96903.13;;;22.82;21.78
64064;BME280;50314;50.618;10.642;2022-09-23T09:35:36;96903.41;;;23.02;21.22
64064;BME280;50314;50.618;10.642;2022-09-23T09:38:03;96904.94;;;23.26;21.44
64064;BME280;50314;50.618;10.642;2022-09-23T09:40:30;96890.75;;;23.47;21.23
64064;BME280;50314;50.618;10.642;2022-09-23T09:42:56;96889.72;;;23.69;21.07
64064;BME280;50314;50.618;10.642;2022-09-23T09:45:24;96890.16;;;23.95;20.57
64064;BME280;50314;50.618;10.642;2022-09-23T09:48:08;96884.53;;;24.11;20.58
64064;BME280;50314;50.618;10.642;2022-09-23T09:55:58;96877.09;;;24.48;20.23
64064;BME280;50314;50.618;10.642;2022-09-23T09:58:27;96869.22;;;24.74;20.14
64064;BME280;50314;50.618;10.642;2022-09-23T10:00:54;96862.94;;;25.02;20.27
64064;BME280;50314;50.618;10.642;2022-09-23T10:03:30;96873.81;;;25.28;19.57
64064;BME280;50314;50.618;10.642;2022-09-23T10:05:57;96864.34;;;25.59;19.79
64064;BME280;50314;50.618;10.642;2022-09-23T10:08:27;96862.50;;;25.79;19.44
64064;BME280;50314;50.618;10.642;2022-09-23T10:11:13;96864.00;;;26.15;19.27
64064;BME280;50314;50.618;10.642;2022-09-23T10:13:41;96856.47;;;26.57;18.83
64064;BME280;50314;50.618;10.642;2022-09-23T10:16:06;96858.28;;;26.83;18.40
64064;BME280;50314;50.618;10.642;2022-09-23T10:21:12;96860.66;;;27.56;17.25
64064;BME280;50314;50.618;10.642;2022-09-23T10:23:44;96855.88;;;27.83;16.97
64064;BME280;50314;50.618;10.642;2022-09-23T10:26:11;96862.53;;;28.13;16.56
64064;BME280;50314;50.618;10.642;2022-09-23T10:31:15;96864.97;;;28.64;15.33
64064;BME280;50314;50.618;10.642;2022-09-23T10:33:48;96861.16;;;28.90;14.82
64064;BME280;50314;50.618;10.642;2022-09-23T10:36:17;96862.72;;;29.16;14.42
64064;BME280;50314;50.618;10.642;2022-09-23T10:38:43;96859.31;;;29.39;14.51
64064;BME280;50314;50.618;10.642;2022-09-23T10:41:35;96855.31;;;29.54;13.91
64064;BME280;50314;50.618;10.642;2022-09-23T10:44:37;96846.31;;;29.71;13.75
64064;BME280;50314;50.618;10.642;2022-09-23T10:47:55;96849.69;;;29.67;13.62
64064;BME280;50314;50.618;10.642;2022-09-23T10:50:36;96849.69;;;29.67;13.78
64064;BME280;50314;50.618;10.642;2022-09-23T10:53:17;96842.38;;;29.56;14.00
64064;BME280;50314;50.618;10.642;2022-09-23T11:13:25;96826.50;;;28.37;15.51
64064;BME280;50314;50.618;10.642;2022-09-23T11:15:43;96818.63;;;28.29;15.79
64064;BME280;50314;50.618;10.642;2022-09-23T11:18:55;96812.72;;;28.20;16.04
64064;BME280;50314;50.618;10.642;2022-09-23T11:21:54;96812.78;;;28.14;16.02
64064;BME280;50314;50.618;10.642;2022-09-23T11:35:23;96798.13;;;27.96;16.10
64064;BME280;50314;50.618;10.642;2022-09-23T11:37:55;96798.13;;;27.96;16.07
64064;BME280;50314;50.618;10.642;2022-09-23T11:40:23;96792.97;;;27.88;16.51
64064;BME280;50314;50.618;10.642;2022-09-23T11:43:01;96794.66;;;27.89;16.31
64064;BME280;50314;50.618;10.642;2022-09-23T11:45:35;96790.94;;;27.83;16.16
64064;BME280;50314;50.618;10.642;2022-09-23T11:48:12;96789.13;;;27.77;16.65
64064;BME280;50314;50.618;10.642;2022-09-23T11:50:59;96784.16;;;27.74;16.57
64064;BME280;50314;50.618;10.642;2022-09-23T11:56:01;96778.16;;;27.72;16.92
64064;BME280;50314;50.618;10.642;2022-09-23T11:58:36;96769.63;;;27.69;16.49
64064;BME280;50314;50.618;10.642;2022-09-23T12:01:13;96763.63;;;27.67;16.67
64064;BME280;50314;50.618;10.642;2022-09-23T12:03:50;96760.91;;;27.67;16.74
64064;BME280;50314;50.618;10.642;2022-09-23T12:06:23;96761.97;;;27.66;16.51
64064;BME280;50314;50.618;10.642;2022-09-23T12:08:57;96763.00;;;27.64;16.91
64064;BME280;50314;50.618;10.642;2022-09-23T12:11:45;96752.03;;;27.59;16.37
64064;BME280;50314;50.618;10.642;2022-09-23T12:26:04;96744.19;;;27.51;16.34
64064;BME280;50314;50.618;10.642;2022-09-23T12:28:39;96737.50;;;27.54;16.52
64064;BME280;50314;50.618;10.642;2022-09-23T12:31:10;96740.00;;;27.55;16.35
64064;BME280;50314;50.618;10.642;2022-09-23T12:33:37;96736.44;;;27.55;16.69
64064;BME280;50314;50.618;10.642;2022-09-23T12:36:08;96740.44;;;27.52;16.47
64064;BME280;50314;50.618;10.642;2022-09-23T12:38:34;96735.63;;;27.54;16.83
64064;BME280;50314;50.618;10.642;2022-09-23T12:41:01;96732.09;;;27.54;16.55
64064;BME280;50314;50.618;10.642;2022-09-23T12:43:34;96730.44;;;27.53;16.96
64064;BME280;50314;50.618;10.642;2022-09-23T12:46:17;96723.41;;;27.45;16.94
64064;BME280;50314;50.618;10.642;2022-09-23T12:51:32;96717.38;;;27.43;16.95
64064;BME280;50314;50.618;10.642;2022-09-23T13:01:35;96705.41;;;27.32;17.07
64064;BME280;50314;50.618;10.642;2022-09-23T13:04:01;96711.03;;;27.31;15.99
64064;BME280;50314;50.618;10.642;2022-09-23T13:06:57;96703.63;;;27.20;15.63
64064;BME280;50314;50.618;10.642;2022-09-23T13:09:32;96699.88;;;27.21;15.33
64064;BME280;50314;50.618;10.642;2022-09-23T13:12:05;96707.00;;;27.15;14.99
64064;BME280;50314;50.618;10.642;2022-09-23T13:14:36;96708.47;;;27.11;15.34
64064;BME280;50314;50.618;10.642;2022-09-23T13:17:02;96694.19;;;27.04;15.20
64064;BME280;50314;50.618;10.642;2022-09-23T13:22:10;96689.03;;;26.95;14.94
64064;BME280;50314;50.618;10.642;2022-09-23T13:24:46;96689.66;;;26.91;15.01
64064;BME280;50314;50.618;10.642;2022-09-23T13:27:23;96689.50;;;26.86;14.78
64064;BME280;50314;50.618;10.642;2022-09-23T13:32:46;96681.03;;;26.76;14.52
64064;BME280;50314;50.618;10.642;2022-09-23T13:35:24;96676.50;;;26.69;14.57
64064;BME280;50314;50.618;10.642;2022-09-23T13:37:55;96672.56;;;26.72;14.93
64064;BME280;50314;50.618;10.642;2022-09-23T13:40:24;96666.13;;;26.66;14.55
64064;BME280;50314;50.618;10.642;2022-09-23T13:43:03;96670.97;;;26.58;14.82
64064;BME280;50314;50.618;10.642;2022-09-23T13:45:36;96661.19;;;26.57;14.35
64064;BME280;50314;50.618;10.642;2022-09-23T13:48:13;96660.38;;;26.49;14.83
64064;BME280;50314;50.618;10.642;2022-09-23T13:50:46;96660.41;;;26.43;14.66
64064;BME280;50314;50.618;10.642;2022-09-23T13:53:19;96660.44;;;26.36;14.39
64064;BME280;50314;50.618;10.642;2022-09-23T13:55:46;96661.09;;;26.32;14.58
64064;BME280;50314;50.618;10.642;2022-09-23T13:58:19;96651.38;;;26.24;14.71
64064;BME280;50314;50.618;10.642;2022-09-23T14:00:46;96657.22;;;26.21;14.98
64064;BME280;50314;50.618;10.642;2022-09-23T14:03:32;96656.00;;;26.10;15.07
64064;BME280;50314;50.618;10.642;2022-09-23T14:06:00;96652.25;;;26.11;15.53
64064;BME280;50314;50.618;10.642;2022-09-23T14:08:27;96644.59;;;26.08;15.83
64064;BME280;50314;50.618;10.642;2022-09-23T14:10:54;96650.63;;;26.04;15.68
64064;BME280;50314;50.618;10.642;2022-09-23T14:13:41;96648.94;;;25.96;15.84
64064;BME280;50314;50.618;10.642;2022-09-23T14:16:10;96647.72;;;25.98;16.15
64064;BME280;50314;50.618;10.642;2022-09-23T14:18:38;96645.44;;;25.95;16.26
64064;BME280;50314;50.618;10.642;2022-09-23T14:21:10;96641.50;;;25.91;16.41
64064;BME280;50314;50.618;10.642;2022-09-23T14:23:50;96631.38;;;25.87;16.99
64064;BME280;50314;50.618;10.642;2022-09-23T14:26:15;96638.19;;;25.83;16.67
64064;BME280;50314;50.618;10.642;2022-09-23T14:28:41;96629.94;;;25.77;17.00
64064;BME280;50314;50.618;10.642;2022-09-23T14:31:07;96629.72;;;25.72;17.28
64064;BME280;50314;50.618;10.642;2022-09-23T14:33:38;96631.63;;;25.65;17.16
64064;BME280;50314;50.618;10.642;2022-09-23T14:36:15;96621.06;;;25.57;17.52
64064;BME280;50314;50.618;10.642;2022-09-23T14:39:08;96623.34;;;25.53;17.55
64064;BME280;50314;50.618;10.642;2022-09-23T14:41:37;96617.72;;;25.48;17.73
64064;BME280;50314;50.618;10.642;2022-09-23T14:44:05;96618.38;;;25.44;17.75
64064;BME280;50314;50.618;10.642;2022-09-23T14:46:36;96613.63;;;25.39;17.63
64064;BME280;50314;50.618;10.642;2022-09-23T14:49:21;96616.09;;;25.27;17.89
64064;BME280;50314;50.618;10.642;2022-09-23T14:51:59;96618.16;;;25.25;17.75
64064;BME280;50314;50.618;10.642;2022-09-23T14:54:33;96621.72;;;25.19;17.89
64064;BME280;50314;50.618;10.642;2022-09-23T14:57:01;96615.69;;;25.17;18.04
64064;BME280;50314;50.618;10.642;2022-09-23T14:59:32;96609.69;;;25.08;18.08
64064;BME280;50314;50.618;10.642;2022-09-23T15:01:58;96608.25;;;25.06;18.15
64064;BME280;50314;50.618;10.642;2022-09-23T15:06:52;96605.94;;;24.96;18.16